sensor_id;sensor_type;location;lat;lon;timestamp;P1;durP1;ratioP1;P2;durP2;ratioP2
69985;SDS011;57328;52.054;5.294;2023-03-13T00:00:56;16.10;;;3.53;;
69985;SDS011;57328;52.054;5.294;2023-03-13T00:03:23;16.25;;;3.13;;
69985;SDS011;57328;52.054;5.294;2023-03-13T00:05:54;19.70;;;3.85;;
69985;SDS011;57328;52.054;5.294;2023-03-13T00:08:22;18.30;;;3.08;;
69985;SDS011;57328;52.054;5.294;2023-03-13T00:10:49;15.45;;;3.05;;
69985;SDS011;57328;52.054;5.294;2023-03-13T00:13:16;19.13;;;3.03;;
69985;SDS011;57328;52.054;5.294;2023-03-13T00:15:43;18.40;;;3.17;;
69985;SDS011;57328;52.054;5.294;2023-03-13T00:18:10;17.02;;;4.18;;
69985;SDS011;57328;52.054;5.294;2023-03-13T00:20:37;18.58;;;4.18;;
69985;SDS011;57328;52.054;5.294;2023-03-13T00:23:04;15.57;;;3.17;;
69985;SDS011;57328;52.054;5.294;2023-03-13T00:25:32;20.20;;;3.75;;
69985;SDS011;57328;52.054;5.294;2023-03-13T00:27:59;21.70;;;3.40;;
69985;SDS011;57328;52.054;5.294;2023-03-13T00:30:26;22.42;;;3.35;;
69985;SDS011;57328;52.054;5.294;2023-03-13T00:32:53;19.35;;;3.20;;
69985;SDS011;57328;52.054;5.294;2023-03-13T00:35:21;22.73;;;3.90;;
69985;SDS011;57328;52.054;5.294;2023-03-13T00:37:48;22.00;;;3.58;;
69985;SDS011;57328;52.054;5.294;2023-03-13T00:40:15;19.98;;;3.65;;
69985;SDS011;57328;52.054;5.294;2023-03-13T00:42:43;19.27;;;3.75;;
69985;SDS011;57328;52.054;5.294;2023-03-13T00:45:10;16.73;;;3.45;;
69985;SDS011;57328;52.054;5.294;2023-03-13T00:47:37;21.25;;;4.05;;
69985;SDS011;57328;52.054;5.294;2023-03-13T00:50:04;19.45;;;3.58;;
69985;SDS011;57328;52.054;5.294;2023-03-13T00:52:32;18.40;;;3.60;;
69985;SDS011;57328;52.054;5.294;2023-03-13T00:54:59;19.05;;;4.07;;
69985;SDS011;57328;52.054;5.294;2023-03-13T00:57:26;21.75;;;4.00;;
69985;SDS011;57328;52.054;5.294;2023-03-13T00:59:53;21.70;;;3.85;;
69985;SDS011;57328;52.054;5.294;2023-03-13T01:02:20;23.77;;;4.30;;
69985;SDS011;57328;52.054;5.294;2023-03-13T01:04:48;19.63;;;4.13;;
69985;SDS011;57328;52.054;5.294;2023-03-13T01:07:15;26.17;;;4.70;;
69985;SDS011;57328;52.054;5.294;2023-03-13T01:09:42;19.27;;;3.90;;
69985;SDS011;57328;52.054;5.294;2023-03-13T01:12:09;23.60;;;4.13;;
69985;SDS011;57328;52.054;5.294;2023-03-13T01:14:36;20.45;;;4.15;;
69985;SDS011;57328;52.054;5.294;2023-03-13T01:17:03;19.70;;;4.38;;
69985;SDS011;57328;52.054;5.294;2023-03-13T01:19:30;18.23;;;4.20;;
69985;SDS011;57328;52.054;5.294;2023-03-13T01:21:57;14.40;;;3.60;;
69985;SDS011;57328;52.054;5.294;2023-03-13T01:24:24;19.40;;;3.92;;
69985;SDS011;57328;52.054;5.294;2023-03-13T01:26:52;15.07;;;3.65;;
69985;SDS011;57328;52.054;5.294;2023-03-13T01:29:19;17.67;;;3.55;;
69985;SDS011;57328;52.054;5.294;2023-03-13T01:31:46;13.82;;;3.67;;
69985;SDS011;57328;52.054;5.294;2023-03-13T01:34:13;18.92;;;3.72;;
69985;SDS011;57328;52.054;5.294;2023-03-13T01:36:40;13.75;;;3.30;;
69985;SDS011;57328;52.054;5.294;2023-03-13T01:39:08;13.43;;;4.07;;
69985;SDS011;57328;52.054;5.294;2023-03-13T01:41:36;10.75;;;4.15;;
69985;SDS011;57328;52.054;5.294;2023-03-13T01:44:03;13.43;;;4.07;;
69985;SDS011;57328;52.054;5.294;2023-03-13T01:46:30;15.30;;;3.90;;
69985;SDS011;57328;52.054;5.294;2023-03-13T01:51:35;10.55;;;3.92;;
69985;SDS011;57328;52.054;5.294;2023-03-13T01:56:52;11.68;;;3.75;;
69985;SDS011;57328;52.054;5.294;2023-03-13T01:59:21;11.20;;;3.45;;
69985;SDS011;57328;52.054;5.294;2023-03-13T02:01:50;12.73;;;3.78;;
69985;SDS011;57328;52.054;5.294;2023-03-13T02:04:19;16.10;;;4.55;;
69985;SDS011;57328;52.054;5.294;2023-03-13T02:06:48;10.55;;;4.20;;
69985;SDS011;57328;52.054;5.294;2023-03-13T02:11:46;12.90;;;3.00;;
69985;SDS011;57328;52.054;5.294;2023-03-13T02:14:14;14.75;;;4.05;;
69985;SDS011;57328;52.054;5.294;2023-03-13T02:16:42;14.55;;;4.25;;
69985;SDS011;57328;52.054;5.294;2023-03-13T02:22:02;11.75;;;4.25;;
69985;SDS011;57328;52.054;5.294;2023-03-13T02:26:58;12.60;;;4.53;;
69985;SDS011;57328;52.054;5.294;2023-03-13T02:29:25;15.88;;;4.90;;
69985;SDS011;57328;52.054;5.294;2023-03-13T02:31:52;13.27;;;4.30;;
69985;SDS011;57328;52.054;5.294;2023-03-13T02:34:20;15.77;;;5.00;;
69985;SDS011;57328;52.054;5.294;2023-03-13T02:36:49;20.52;;;5.45;;
69985;SDS011;57328;52.054;5.294;2023-03-13T02:39:17;14.68;;;5.05;;
69985;SDS011;57328;52.054;5.294;2023-03-13T02:41:46;16.75;;;5.78;;
69985;SDS011;57328;52.054;5.294;2023-03-13T02:44:14;12.32;;;4.82;;
69985;SDS011;57328;52.054;5.294;2023-03-13T02:46:48;14.40;;;5.40;;
69985;SDS011;57328;52.054;5.294;2023-03-13T02:49:28;12.75;;;5.50;;
69985;SDS011;57328;52.054;5.294;2023-03-13T02:51:56;16.50;;;6.60;;
69985;SDS011;57328;52.054;5.294;2023-03-13T02:54:29;11.35;;;5.32;;
69985;SDS011;57328;52.054;5.294;2023-03-13T02:56:58;15.27;;;6.57;;
69985;SDS011;57328;52.054;5.294;2023-03-13T02:59:26;14.07;;;5.72;;
69985;SDS011;57328;52.054;5.294;2023-03-13T03:01:53;18.05;;;6.60;;
69985;SDS011;57328;52.054;5.294;2023-03-13T03:04:22;13.35;;;6.03;;
69985;SDS011;57328;52.054;5.294;2023-03-13T03:06:49;17.60;;;7.32;;
69985;SDS011;57328;52.054;5.294;2023-03-13T03:09:17;12.48;;;6.00;;
69985;SDS011;57328;52.054;5.294;2023-03-13T03:11:45;19.83;;;7.43;;
69985;SDS011;57328;52.054;5.294;2023-03-13T03:14:12;16.88;;;7.45;;
69985;SDS011;57328;52.054;5.294;2023-03-13T03:16:39;17.92;;;7.35;;
69985;SDS011;57328;52.054;5.294;2023-03-13T03:19:07;18.80;;;7.78;;
69985;SDS011;57328;52.054;5.294;2023-03-13T03:21:34;17.55;;;8.10;;
69985;SDS011;57328;52.054;5.294;2023-03-13T03:24:01;15.48;;;8.35;;
69985;SDS011;57328;52.054;5.294;2023-03-13T03:26:29;15.32;;;6.25;;
69985;SDS011;57328;52.054;5.294;2023-03-13T03:28:56;16.52;;;7.75;;
69985;SDS011;57328;52.054;5.294;2023-03-13T03:31:23;16.02;;;6.90;;
69985;SDS011;57328;52.054;5.294;2023-03-13T03:33:50;14.60;;;6.55;;
69985;SDS011;57328;52.054;5.294;2023-03-13T03:36:19;14.75;;;7.07;;
69985;SDS011;57328;52.054;5.294;2023-03-13T03:38:47;17.73;;;7.10;;
69985;SDS011;57328;52.054;5.294;2023-03-13T03:41:14;14.20;;;6.28;;
69985;SDS011;57328;52.054;5.294;2023-03-13T03:43:42;11.48;;;5.50;;
69985;SDS011;57328;52.054;5.294;2023-03-13T03:46:09;14.68;;;5.97;;
69985;SDS011;57328;52.054;5.294;2023-03-13T03:48:36;15.23;;;6.10;;
69985;SDS011;57328;52.054;5.294;2023-03-13T03:51:04;13.75;;;5.53;;
69985;SDS011;57328;52.054;5.294;2023-03-13T03:53:31;12.93;;;5.75;;
69985;SDS011;57328;52.054;5.294;2023-03-13T03:55:58;13.38;;;5.47;;
69985;SDS011;57328;52.054;5.294;2023-03-13T03:58:26;8.93;;;4.68;;
69985;SDS011;57328;52.054;5.294;2023-03-13T04:00:54;8.05;;;3.88;;
69985;SDS011;57328;52.054;5.294;2023-03-13T04:03:22;12.35;;;4.85;;
69985;SDS011;57328;52.054;5.294;2023-03-13T04:05:49;13.05;;;5.25;;
69985;SDS011;57328;52.054;5.294;2023-03-13T04:08:16;11.27;;;5.28;;
69985;SDS011;57328;52.054;5.294;2023-03-13T04:10:43;10.98;;;5.05;;
69985;SDS011;57328;52.054;5.294;2023-03-13T04:13:11;14.32;;;5.80;;
69985;SDS011;57328;52.054;5.294;2023-03-13T04:15:38;11.10;;;4.93;;
69985;SDS011;57328;52.054;5.294;2023-03-13T04:18:05;11.13;;;4.95;;
69985;SDS011;57328;52.054;5.294;2023-03-13T04:20:33;12.15;;;5.00;;
69985;SDS011;57328;52.054;5.294;2023-03-13T04:23:00;15.85;;;4.90;;
69985;SDS011;57328;52.054;5.294;2023-03-13T04:25:27;12.15;;;5.22;;
69985;SDS011;57328;52.054;5.294;2023-03-13T04:27:55;10.45;;;5.15;;
69985;SDS011;57328;52.054;5.294;2023-03-13T04:30:22;10.32;;;4.57;;
69985;SDS011;57328;52.054;5.294;2023-03-13T04:32:49;8.75;;;4.38;;
69985;SDS011;57328;52.054;5.294;2023-03-13T04:35:16;14.18;;;5.93;;
69985;SDS011;57328;52.054;5.294;2023-03-13T04:37:44;13.55;;;4.95;;
69985;SDS011;57328;52.054;5.294;2023-03-13T04:40:11;11.50;;;4.90;;
69985;SDS011;57328;52.054;5.294;2023-03-13T04:42:39;9.82;;;4.25;;
69985;SDS011;57328;52.054;5.294;2023-03-13T04:45:07;11.05;;;4.70;;
69985;SDS011;57328;52.054;5.294;2023-03-13T04:47:36;12.05;;;5.25;;
69985;SDS011;57328;52.054;5.294;2023-03-13T04:50:03;11.82;;;5.28;;
69985;SDS011;57328;52.054;5.294;2023-03-13T04:52:31;10.80;;;4.72;;
69985;SDS011;57328;52.054;5.294;2023-03-13T04:54:58;11.63;;;4.30;;
69985;SDS011;57328;52.054;5.294;2023-03-13T04:57:25;10.85;;;3.65;;
69985;SDS011;57328;52.054;5.294;2023-03-13T04:59:52;11.55;;;4.10;;
69985;SDS011;57328;52.054;5.294;2023-03-13T05:02:19;10.95;;;4.50;;
69985;SDS011;57328;52.054;5.294;2023-03-13T05:04:47;8.57;;;3.40;;
69985;SDS011;57328;52.054;5.294;2023-03-13T05:07:17;9.90;;;3.80;;
69985;SDS011;57328;52.054;5.294;2023-03-13T05:09:44;7.65;;;2.80;;
69985;SDS011;57328;52.054;5.294;2023-03-13T05:12:11;9.30;;;3.20;;
69985;SDS011;57328;52.054;5.294;2023-03-13T05:14:38;7.45;;;2.65;;
69985;SDS011;57328;52.054;5.294;2023-03-13T05:17:05;8.15;;;2.85;;
69985;SDS011;57328;52.054;5.294;2023-03-13T05:19:32;9.13;;;3.38;;
69985;SDS011;57328;52.054;5.294;2023-03-13T05:22:00;10.18;;;3.03;;
69985;SDS011;57328;52.054;5.294;2023-03-13T05:24:27;8.23;;;2.70;;
69985;SDS011;57328;52.054;5.294;2023-03-13T05:26:54;6.55;;;2.70;;
69985;SDS011;57328;52.054;5.294;2023-03-13T05:29:21;8.43;;;3.15;;
69985;SDS011;57328;52.054;5.294;2023-03-13T05:31:48;6.72;;;2.70;;
69985;SDS011;57328;52.054;5.294;2023-03-13T05:34:16;11.88;;;2.75;;
69985;SDS011;57328;52.054;5.294;2023-03-13T05:36:43;9.73;;;2.78;;
69985;SDS011;57328;52.054;5.294;2023-03-13T05:39:10;10.55;;;2.92;;
69985;SDS011;57328;52.054;5.294;2023-03-13T05:41:37;14.52;;;3.13;;
69985;SDS011;57328;52.054;5.294;2023-03-13T05:44:04;10.05;;;2.95;;
69985;SDS011;57328;52.054;5.294;2023-03-13T05:46:31;9.50;;;2.60;;
69985;SDS011;57328;52.054;5.294;2023-03-13T05:48:59;8.43;;;2.70;;
69985;SDS011;57328;52.054;5.294;2023-03-13T05:51:26;12.52;;;2.80;;
69985;SDS011;57328;52.054;5.294;2023-03-13T05:53:53;12.57;;;3.05;;
69985;SDS011;57328;52.054;5.294;2023-03-13T05:56:20;7.70;;;2.35;;
69985;SDS011;57328;52.054;5.294;2023-03-13T05:58:47;8.93;;;2.70;;
69985;SDS011;57328;52.054;5.294;2023-03-13T06:01:15;11.73;;;2.53;;
69985;SDS011;57328;52.054;5.294;2023-03-13T06:03:42;5.68;;;2.22;;
69985;SDS011;57328;52.054;5.294;2023-03-13T06:06:09;10.00;;;2.97;;
69985;SDS011;57328;52.054;5.294;2023-03-13T06:08:36;10.30;;;2.70;;
69985;SDS011;57328;52.054;5.294;2023-03-13T06:11:03;7.78;;;2.70;;
69985;SDS011;57328;52.054;5.294;2023-03-13T06:13:30;8.52;;;2.55;;
69985;SDS011;57328;52.054;5.294;2023-03-13T06:15:58;9.73;;;2.40;;
69985;SDS011;57328;52.054;5.294;2023-03-13T06:18:25;10.65;;;3.00;;
69985;SDS011;57328;52.054;5.294;2023-03-13T06:20:56;10.95;;;2.60;;
69985;SDS011;57328;52.054;5.294;2023-03-13T06:23:24;6.20;;;2.38;;
69985;SDS011;57328;52.054;5.294;2023-03-13T06:25:51;7.28;;;2.08;;
69985;SDS011;57328;52.054;5.294;2023-03-13T06:28:18;10.07;;;2.85;;
69985;SDS011;57328;52.054;5.294;2023-03-13T06:30:46;5.90;;;2.15;;
69985;SDS011;57328;52.054;5.294;2023-03-13T06:33:13;8.77;;;2.83;;
69985;SDS011;57328;52.054;5.294;2023-03-13T06:35:41;7.47;;;2.50;;
69985;SDS011;57328;52.054;5.294;2023-03-13T06:40:49;8.15;;;2.70;;
69985;SDS011;57328;52.054;5.294;2023-03-13T06:43:16;9.38;;;2.60;;
69985;SDS011;57328;52.054;5.294;2023-03-13T06:45:43;11.57;;;2.40;;
69985;SDS011;57328;52.054;5.294;2023-03-13T06:48:10;9.00;;;2.90;;
69985;SDS011;57328;52.054;5.294;2023-03-13T06:50:38;8.05;;;2.88;;
69985;SDS011;57328;52.054;5.294;2023-03-13T06:53:05;9.30;;;3.13;;
69985;SDS011;57328;52.054;5.294;2023-03-13T06:55:32;9.35;;;2.10;;
69985;SDS011;57328;52.054;5.294;2023-03-13T06:57:59;6.93;;;2.25;;
69985;SDS011;57328;52.054;5.294;2023-03-13T07:00:26;10.93;;;2.60;;
69985;SDS011;57328;52.054;5.294;2023-03-13T07:02:54;8.77;;;2.78;;
69985;SDS011;57328;52.054;5.294;2023-03-13T07:05:21;6.55;;;2.25;;
69985;SDS011;57328;52.054;5.294;2023-03-13T07:07:48;6.78;;;2.63;;
69985;SDS011;57328;52.054;5.294;2023-03-13T07:10:15;9.98;;;2.97;;
69985;SDS011;57328;52.054;5.294;2023-03-13T07:12:42;11.02;;;3.00;;
69985;SDS011;57328;52.054;5.294;2023-03-13T07:15:10;7.63;;;2.90;;
69985;SDS011;57328;52.054;5.294;2023-03-13T07:17:37;5.85;;;2.35;;
69985;SDS011;57328;52.054;5.294;2023-03-13T07:20:04;8.27;;;2.65;;
69985;SDS011;57328;52.054;5.294;2023-03-13T07:22:36;7.03;;;2.55;;
69985;SDS011;57328;52.054;5.294;2023-03-13T07:25:03;12.77;;;3.28;;
69985;SDS011;57328;52.054;5.294;2023-03-13T07:27:30;8.15;;;2.63;;
69985;SDS011;57328;52.054;5.294;2023-03-13T07:29:58;7.60;;;2.90;;
69985;SDS011;57328;52.054;5.294;2023-03-13T07:32:28;7.80;;;2.72;;
69985;SDS011;57328;52.054;5.294;2023-03-13T07:34:57;10.13;;;2.90;;
69985;SDS011;57328;52.054;5.294;2023-03-13T07:37:24;10.85;;;2.97;;
69985;SDS011;57328;52.054;5.294;2023-03-13T07:39:51;13.48;;;2.95;;
69985;SDS011;57328;52.054;5.294;2023-03-13T07:42:18;9.57;;;2.88;;
69985;SDS011;57328;52.054;5.294;2023-03-13T07:44:45;6.30;;;2.78;;
69985;SDS011;57328;52.054;5.294;2023-03-13T07:47:12;9.73;;;3.28;;
69985;SDS011;57328;52.054;5.294;2023-03-13T07:49:39;10.32;;;3.67;;
69985;SDS011;57328;52.054;5.294;2023-03-13T07:52:09;10.27;;;2.88;;
69985;SDS011;57328;52.054;5.294;2023-03-13T07:54:36;8.23;;;3.05;;
69985;SDS011;57328;52.054;5.294;2023-03-13T07:57:04;7.65;;;2.65;;
69985;SDS011;57328;52.054;5.294;2023-03-13T07:59:31;8.40;;;2.35;;
69985;SDS011;57328;52.054;5.294;2023-03-13T08:01:58;9.25;;;2.70;;
69985;SDS011;57328;52.054;5.294;2023-03-13T08:04:25;11.10;;;3.08;;
69985;SDS011;57328;52.054;5.294;2023-03-13T08:06:52;8.60;;;2.72;;
69985;SDS011;57328;52.054;5.294;2023-03-13T08:09:20;9.75;;;3.13;;
69985;SDS011;57328;52.054;5.294;2023-03-13T08:11:47;11.23;;;2.92;;
69985;SDS011;57328;52.054;5.294;2023-03-13T08:14:14;7.22;;;2.80;;
69985;SDS011;57328;52.054;5.294;2023-03-13T08:16:41;10.23;;;2.85;;
69985;SDS011;57328;52.054;5.294;2023-03-13T08:19:09;9.85;;;3.20;;
69985;SDS011;57328;52.054;5.294;2023-03-13T08:21:36;10.35;;;2.85;;
69985;SDS011;57328;52.054;5.294;2023-03-13T08:24:04;8.95;;;2.80;;
69985;SDS011;57328;52.054;5.294;2023-03-13T08:26:33;10.65;;;3.20;;
69985;SDS011;57328;52.054;5.294;2023-03-13T08:29:01;10.35;;;3.08;;
69985;SDS011;57328;52.054;5.294;2023-03-13T08:31:29;8.77;;;3.15;;
69985;SDS011;57328;52.054;5.294;2023-03-13T08:38:52;13.18;;;3.08;;
69985;SDS011;57328;52.054;5.294;2023-03-13T08:41:21;4.80;;;2.13;;
69985;SDS011;57328;52.054;5.294;2023-03-13T08:43:50;7.97;;;2.15;;
69985;SDS011;57328;52.054;5.294;2023-03-13T08:46:17;10.40;;;2.92;;
69985;SDS011;57328;52.054;5.294;2023-03-13T08:48:49;7.00;;;2.30;;
69985;SDS011;57328;52.054;5.294;2023-03-13T08:51:17;7.35;;;2.40;;
69985;SDS011;57328;52.054;5.294;2023-03-13T08:53:44;9.43;;;2.35;;
69985;SDS011;57328;52.054;5.294;2023-03-13T08:56:13;6.47;;;2.40;;
69985;SDS011;57328;52.054;5.294;2023-03-13T08:58:40;10.15;;;2.75;;
69985;SDS011;57328;52.054;5.294;2023-03-13T09:01:09;9.35;;;2.25;;
69985;SDS011;57328;52.054;5.294;2023-03-13T09:03:36;6.32;;;2.33;;
69985;SDS011;57328;52.054;5.294;2023-03-13T09:06:04;6.18;;;1.77;;
69985;SDS011;57328;52.054;5.294;2023-03-13T09:08:31;5.05;;;1.63;;
69985;SDS011;57328;52.054;5.294;2023-03-13T09:11:02;7.15;;;1.63;;
69985;SDS011;57328;52.054;5.294;2023-03-13T09:13:31;8.52;;;2.30;;
69985;SDS011;57328;52.054;5.294;2023-03-13T09:15:59;4.63;;;1.73;;
69985;SDS011;57328;52.054;5.294;2023-03-13T09:18:27;7.15;;;1.80;;
69985;SDS011;57328;52.054;5.294;2023-03-13T09:20:54;6.15;;;1.70;;
69985;SDS011;57328;52.054;5.294;2023-03-13T09:23:22;6.75;;;1.95;;
69985;SDS011;57328;52.054;5.294;2023-03-13T09:25:52;5.78;;;1.50;;
69985;SDS011;57328;52.054;5.294;2023-03-13T09:28:20;3.33;;;1.35;;
69985;SDS011;57328;52.054;5.294;2023-03-13T09:30:47;5.43;;;1.40;;
69985;SDS011;57328;52.054;5.294;2023-03-13T09:33:15;7.35;;;1.58;;
69985;SDS011;57328;52.054;5.294;2023-03-13T09:35:43;7.57;;;1.30;;
69985;SDS011;57328;52.054;5.294;2023-03-13T09:38:16;5.65;;;1.40;;
69985;SDS011;57328;52.054;5.294;2023-03-13T09:40:44;6.05;;;1.50;;
69985;SDS011;57328;52.054;5.294;2023-03-13T09:45:58;10.00;;;2.20;;
69985;SDS011;57328;52.054;5.294;2023-03-13T09:53:54;6.30;;;1.40;;
69985;SDS011;57328;52.054;5.294;2023-03-13T09:56:23;4.28;;;1.23;;
69985;SDS011;57328;52.054;5.294;2023-03-13T09:58:54;8.68;;;1.17;;
69985;SDS011;57328;52.054;5.294;2023-03-13T10:01:32;4.72;;;1.17;;
69985;SDS011;57328;52.054;5.294;2023-03-13T10:04:03;3.97;;;1.10;;
69985;SDS011;57328;52.054;5.294;2023-03-13T10:06:33;3.97;;;1.00;;
69985;SDS011;57328;52.054;5.294;2023-03-13T10:09:01;5.60;;;1.10;;
69985;SDS011;57328;52.054;5.294;2023-03-13T10:11:31;5.22;;;1.30;;
69985;SDS011;57328;52.054;5.294;2023-03-13T10:16:41;6.13;;;1.13;;
69985;SDS011;57328;52.054;5.294;2023-03-13T10:19:11;3.92;;;1.02;;
69985;SDS011;57328;52.054;5.294;2023-03-13T10:21:40;10.73;;;1.80;;
69985;SDS011;57328;52.054;5.294;2023-03-13T10:24:13;5.32;;;1.60;;
69985;SDS011;57328;52.054;5.294;2023-03-13T10:26:42;5.80;;;1.17;;
69985;SDS011;57328;52.054;5.294;2023-03-13T10:29:18;6.38;;;1.08;;
69985;SDS011;57328;52.054;5.294;2023-03-13T10:32:05;5.35;;;1.30;;
69985;SDS011;57328;52.054;5.294;2023-03-13T10:34:49;5.30;;;1.20;;
69985;SDS011;57328;52.054;5.294;2023-03-13T10:37:40;3.05;;;0.95;;
69985;SDS011;57328;52.054;5.294;2023-03-13T10:40:21;4.75;;;1.15;;
69985;SDS011;57328;52.054;5.294;2023-03-13T10:42:50;4.45;;;1.30;;
69985;SDS011;57328;52.054;5.294;2023-03-13T10:45:18;5.90;;;1.25;;
69985;SDS011;57328;52.054;5.294;2023-03-13T10:47:54;7.88;;;2.55;;
69985;SDS011;57328;52.054;5.294;2023-03-13T10:50:22;5.47;;;1.50;;
69985;SDS011;57328;52.054;5.294;2023-03-13T10:52:50;5.75;;;1.63;;
69985;SDS011;57328;52.054;5.294;2023-03-13T10:55:19;5.25;;;1.65;;
69985;SDS011;57328;52.054;5.294;2023-03-13T10:58:04;6.20;;;1.38;;
69985;SDS011;57328;52.054;5.294;2023-03-13T11:00:36;5.95;;;1.30;;
69985;SDS011;57328;52.054;5.294;2023-03-13T11:03:04;5.75;;;1.40;;
69985;SDS011;57328;52.054;5.294;2023-03-13T11:05:37;4.85;;;1.48;;
69985;SDS011;57328;52.054;5.294;2023-03-13T11:08:24;4.55;;;1.15;;
69985;SDS011;57328;52.054;5.294;2023-03-13T11:10:56;4.95;;;1.08;;
69985;SDS011;57328;52.054;5.294;2023-03-13T11:13:28;5.88;;;1.40;;
69985;SDS011;57328;52.054;5.294;2023-03-13T11:16:45;4.70;;;0.90;;
69985;SDS011;57328;52.054;5.294;2023-03-13T11:24:11;5.63;;;1.20;;
69985;SDS011;57328;52.054;5.294;2023-03-13T11:26:43;5.05;;;0.90;;
69985;SDS011;57328;52.054;5.294;2023-03-13T11:32:03;4.00;;;1.23;;
69985;SDS011;57328;52.054;5.294;2023-03-13T11:34:36;4.30;;;1.35;;
69985;SDS011;57328;52.054;5.294;2023-03-13T11:37:07;9.77;;;1.50;;
69985;SDS011;57328;52.054;5.294;2023-03-13T11:50:14;4.13;;;1.20;;
69985;SDS011;57328;52.054;5.294;2023-03-13T11:53:06;1.85;;;0.80;;
69985;SDS011;57328;52.054;5.294;2023-03-13T12:01:01;4.10;;;1.15;;
69985;SDS011;57328;52.054;5.294;2023-03-13T12:06:28;2.78;;;1.00;;
69985;SDS011;57328;52.054;5.294;2023-03-13T12:11:38;5.05;;;1.08;;
69985;SDS011;57328;52.054;5.294;2023-03-13T12:14:20;4.70;;;1.08;;
69985;SDS011;57328;52.054;5.294;2023-03-13T12:16:50;3.17;;;0.93;;
69985;SDS011;57328;52.054;5.294;2023-03-13T12:19:21;4.78;;;1.00;;
69985;SDS011;57328;52.054;5.294;2023-03-13T12:21:52;5.55;;;1.20;;
69985;SDS011;57328;52.054;5.294;2023-03-13T12:24:34;5.20;;;1.10;;
69985;SDS011;57328;52.054;5.294;2023-03-13T12:27:10;6.18;;;1.33;;
69985;SDS011;57328;52.054;5.294;2023-03-13T12:29:47;5.47;;;1.38;;
69985;SDS011;57328;52.054;5.294;2023-03-13T12:34:58;6.30;;;0.98;;
69985;SDS011;57328;52.054;5.294;2023-03-13T12:45:30;5.22;;;1.27;;
69985;SDS011;57328;52.054;5.294;2023-03-13T12:50:38;8.63;;;1.20;;
69985;SDS011;57328;52.054;5.294;2023-03-13T13:01:01;8.10;;;2.13;;
69985;SDS011;57328;52.054;5.294;2023-03-13T13:16:45;10.63;;;1.35;;
69985;SDS011;57328;52.054;5.294;2023-03-13T13:24:39;6.75;;;1.40;;
69985;SDS011;57328;52.054;5.294;2023-03-13T13:27:26;5.53;;;1.20;;
69985;SDS011;57328;52.054;5.294;2023-03-13T13:29:54;5.80;;;1.15;;
69985;SDS011;57328;52.054;5.294;2023-03-13T13:32:35;10.80;;;1.40;;
69985;SDS011;57328;52.054;5.294;2023-03-13T13:35:05;4.40;;;1.33;;
69985;SDS011;57328;52.054;5.294;2023-03-13T13:37:44;8.73;;;2.00;;
69985;SDS011;57328;52.054;5.294;2023-03-13T13:45:22;14.73;;;1.95;;
69985;SDS011;57328;52.054;5.294;2023-03-13T13:47:51;9.40;;;2.08;;
69985;SDS011;57328;52.054;5.294;2023-03-13T13:50:37;10.00;;;1.90;;
69985;SDS011;57328;52.054;5.294;2023-03-13T14:01:24;9.65;;;1.77;;
69985;SDS011;57328;52.054;5.294;2023-03-13T14:03:53;12.27;;;2.22;;
69985;SDS011;57328;52.054;5.294;2023-03-13T14:06:27;14.25;;;3.33;;
69985;SDS011;57328;52.054;5.294;2023-03-13T14:08:59;13.45;;;1.85;;
69985;SDS011;57328;52.054;5.294;2023-03-13T14:11:37;11.98;;;1.73;;
69985;SDS011;57328;52.054;5.294;2023-03-13T14:14:08;9.15;;;1.98;;
69985;SDS011;57328;52.054;5.294;2023-03-13T14:16:36;13.07;;;2.47;;
69985;SDS011;57328;52.054;5.294;2023-03-13T14:19:03;15.43;;;2.33;;
69985;SDS011;57328;52.054;5.294;2023-03-13T14:23:59;12.63;;;2.20;;
69985;SDS011;57328;52.054;5.294;2023-03-13T14:26:27;13.55;;;1.95;;
69985;SDS011;57328;52.054;5.294;2023-03-13T14:31:29;13.18;;;2.13;;
69985;SDS011;57328;52.054;5.294;2023-03-13T14:33:57;14.18;;;2.60;;
69985;SDS011;57328;52.054;5.294;2023-03-13T14:36:25;13.93;;;2.10;;
69985;SDS011;57328;52.054;5.294;2023-03-13T14:38:53;13.82;;;2.30;;
69985;SDS011;57328;52.054;5.294;2023-03-13T14:41:21;9.90;;;1.58;;
69985;SDS011;57328;52.054;5.294;2023-03-13T14:43:49;13.32;;;1.73;;
69985;SDS011;57328;52.054;5.294;2023-03-13T14:46:22;12.13;;;1.80;;
69985;SDS011;57328;52.054;5.294;2023-03-13T14:48:53;12.20;;;2.25;;
69985;SDS011;57328;52.054;5.294;2023-03-13T14:56:29;11.90;;;1.70;;
69985;SDS011;57328;52.054;5.294;2023-03-13T14:59:14;10.75;;;1.58;;
69985;SDS011;57328;52.054;5.294;2023-03-13T15:01:42;11.25;;;2.10;;
69985;SDS011;57328;52.054;5.294;2023-03-13T15:04:10;16.00;;;2.67;;
69985;SDS011;57328;52.054;5.294;2023-03-13T15:06:37;14.00;;;2.03;;
69985;SDS011;57328;52.054;5.294;2023-03-13T15:11:57;15.77;;;2.45;;
69985;SDS011;57328;52.054;5.294;2023-03-13T15:14:32;17.70;;;2.33;;
69985;SDS011;57328;52.054;5.294;2023-03-13T15:17:00;13.98;;;2.60;;
69985;SDS011;57328;52.054;5.294;2023-03-13T15:19:29;9.13;;;2.25;;
69985;SDS011;57328;52.054;5.294;2023-03-13T15:21:57;19.70;;;3.15;;
69985;SDS011;57328;52.054;5.294;2023-03-13T15:24:24;13.32;;;2.00;;
69985;SDS011;57328;52.054;5.294;2023-03-13T15:26:52;13.65;;;2.42;;
69985;SDS011;57328;52.054;5.294;2023-03-13T15:29:19;12.88;;;2.63;;
69985;SDS011;57328;52.054;5.294;2023-03-13T15:31:49;12.27;;;2.60;;
69985;SDS011;57328;52.054;5.294;2023-03-13T15:34:16;13.60;;;2.03;;
69985;SDS011;57328;52.054;5.294;2023-03-13T15:36:45;16.70;;;2.67;;
69985;SDS011;57328;52.054;5.294;2023-03-13T15:39:13;13.82;;;2.05;;
69985;SDS011;57328;52.054;5.294;2023-03-13T15:41:41;12.07;;;2.00;;
69985;SDS011;57328;52.054;5.294;2023-03-13T15:44:08;11.95;;;2.33;;
69985;SDS011;57328;52.054;5.294;2023-03-13T15:46:35;18.50;;;2.38;;
69985;SDS011;57328;52.054;5.294;2023-03-13T15:49:04;17.33;;;2.85;;
69985;SDS011;57328;52.054;5.294;2023-03-13T15:51:36;14.63;;;2.65;;
69985;SDS011;57328;52.054;5.294;2023-03-13T15:54:03;11.20;;;1.75;;
69985;SDS011;57328;52.054;5.294;2023-03-13T15:56:33;16.13;;;2.85;;
69985;SDS011;57328;52.054;5.294;2023-03-13T15:59:00;15.60;;;2.28;;
69985;SDS011;57328;52.054;5.294;2023-03-13T16:01:28;13.18;;;2.42;;
69985;SDS011;57328;52.054;5.294;2023-03-13T16:03:55;16.83;;;2.45;;
69985;SDS011;57328;52.054;5.294;2023-03-13T16:06:23;14.85;;;2.10;;
69985;SDS011;57328;52.054;5.294;2023-03-13T16:08:56;13.02;;;2.05;;
69985;SDS011;57328;52.054;5.294;2023-03-13T16:11:25;11.10;;;2.05;;
69985;SDS011;57328;52.054;5.294;2023-03-13T16:13:53;13.35;;;2.35;;
69985;SDS011;57328;52.054;5.294;2023-03-13T16:16:21;17.55;;;2.72;;
69985;SDS011;57328;52.054;5.294;2023-03-13T16:18:50;15.10;;;2.75;;
69985;SDS011;57328;52.054;5.294;2023-03-13T16:21:19;16.40;;;2.50;;
69985;SDS011;57328;52.054;5.294;2023-03-13T16:23:46;15.37;;;2.73;;
69985;SDS011;57328;52.054;5.294;2023-03-13T16:26:15;13.38;;;2.55;;
69985;SDS011;57328;52.054;5.294;2023-03-13T16:28:43;18.27;;;2.60;;
69985;SDS011;57328;52.054;5.294;2023-03-13T16:31:15;18.40;;;2.85;;
69985;SDS011;57328;52.054;5.294;2023-03-13T16:33:44;17.08;;;2.47;;
69985;SDS011;57328;52.054;5.294;2023-03-13T16:36:18;20.40;;;3.35;;
69985;SDS011;57328;52.054;5.294;2023-03-13T16:38:46;14.13;;;2.60;;
69985;SDS011;57328;52.054;5.294;2023-03-13T16:41:14;18.20;;;2.45;;
69985;SDS011;57328;52.054;5.294;2023-03-13T16:43:42;22.83;;;3.00;;
69985;SDS011;57328;52.054;5.294;2023-03-13T16:46:13;17.15;;;2.60;;
69985;SDS011;57328;52.054;5.294;2023-03-13T16:48:40;15.70;;;2.50;;
69985;SDS011;57328;52.054;5.294;2023-03-13T16:51:15;18.63;;;2.60;;
69985;SDS011;57328;52.054;5.294;2023-03-13T16:53:43;19.50;;;3.33;;
69985;SDS011;57328;52.054;5.294;2023-03-13T16:58:45;15.93;;;2.97;;
69985;SDS011;57328;52.054;5.294;2023-03-13T17:01:12;15.70;;;2.92;;